KGDJ

Details ICAO KGDJ
Name GRANBURY MUNI
Region United States
Timezone America/Chicago (UTC-5.0)
Plans Departing 0
Arriving 0
Stats Elevation 778 ft / 237 m (AMSL)
Location 32.444418° -97.816933°
Runways 1
Magnetic Variation 3.967° E
Sunrise 2017-04-27 11:49:27 UTC / 2017-04-27 06:49:27 Local
Sunset 2017-04-28 01:10:33 UTC / 2017-04-27 20:10:33 Local
Advertisement - Login to hide

Runways

ID Width Length Bearing (true) Bearing (mag) Surface Threshold Offset Overrun Length
14 60 ft / 18 m 3,610 ft / 1,100 m 149.78° 145.81° Asphalt 0 ft / 0 m 0 ft / 0 m
32 60 ft / 18 m 3,610 ft / 1,100 m 329.78° 325.81° Asphalt 0 ft / 0 m 0 ft / 0 m

Map

Weather

Temperature
Clouds and Precipitation
Forecast for 2017-04-27 12:00 UTC. Updated 2 hours ago
Winds

METAR

KGDJ 271035Z AUTO 00000KT 10SM CLR 07/06 A2977 RMK AO2 T00690058

TAF

Not found

Frequencies

Recorded 118.92 MHz AWOS 3
Unicom 123.00 MHz CTAF/UNICOM
Warning: Do not use this data for real-world aviation or navigation. No guarantee of current accuracy is given.